Terminal Aerodrome Forecast
Issued by NWS Charleston, WV

Current Version | Previous Version | Graphics & Text | Print | Product List | Glossary On
Versions: 1 2 3 4 5 6 7 8 9 10 11 12 13 14 15 16 17 18 19 20 21 22 23 24 25
000
FTUS41 KRLX 251159
TAFBKW
TAF
KBKW 251159Z 2512/2612 33003KT 2SM BR OVC006
     FM251400 32004KT P6SM OVC008
     FM251600 31005KT P6SM OVC008
     FM251800 31006KT P6SM OVC012
     FM252100 31008KT 4SM SHRA OVC008
     FM260300 32005KT P6SM OVC003
     FM260800 33004KT P6SM BKN070=

USA.gov is the U.S. government's official web portal to all federal, state and local government web resources and services.